createdAt,value
2017-10-27T00:00:42.514Z,1013.72
2017-10-27T00:01:42.511Z,1013.72
2017-10-27T00:02:42.513Z,1013.68
2017-10-27T00:03:42.513Z,1013.72
2017-10-27T00:04:42.517Z,1013.73
2017-10-27T00:05:42.517Z,1013.70
2017-10-27T00:06:42.524Z,1013.74
2017-10-27T00:07:42.524Z,1013.69
2017-10-27T00:08:42.531Z,1013.65
2017-10-27T00:09:42.524Z,1013.68
2017-10-27T00:10:42.523Z,1013.66
2017-10-27T00:11:42.525Z,1013.65
2017-10-27T00:12:42.530Z,1013.65
2017-10-27T00:13:42.553Z,1013.62
2017-10-27T00:14:42.533Z,1013.68
2017-10-27T00:15:42.533Z,1013.64
2017-10-27T00:16:42.533Z,1013.62
2017-10-27T00:17:42.534Z,1013.62
2017-10-27T00:18:42.544Z,1013.59
2017-10-27T00:19:42.536Z,1013.57
2017-10-27T00:20:42.542Z,1013.59
2017-10-27T00:21:42.540Z,1013.59
2017-10-27T00:22:42.547Z,1013.57
2017-10-27T00:23:42.544Z,1013.59
2017-10-27T00:24:42.546Z,1013.59
2017-10-27T00:25:42.551Z,1013.59
2017-10-27T00:26:42.554Z,1013.60
2017-10-27T00:27:42.558Z,1013.62
2017-10-27T00:28:42.552Z,1013.60
2017-10-27T00:29:42.550Z,1013.61
2017-10-27T00:30:42.553Z,1013.61
2017-10-27T00:31:42.551Z,1013.59
2017-10-27T00:32:42.568Z,1013.58
2017-10-27T00:33:42.560Z,1013.51
2017-10-27T00:34:42.560Z,1013.50
2017-10-27T00:35:42.563Z,1013.48
2017-10-27T00:36:42.564Z,1013.51
2017-10-27T00:37:42.564Z,1013.44
2017-10-27T00:38:42.566Z,1013.43
2017-10-27T00:39:42.566Z,1013.45
2017-10-27T00:40:42.573Z,1013.43
2017-10-27T00:41:42.579Z,1013.45
2017-10-27T00:42:42.573Z,1013.39
2017-10-27T00:43:42.573Z,1013.36
2017-10-27T00:44:42.572Z,1013.36
2017-10-27T00:45:42.574Z,1013.35
2017-10-27T00:46:42.581Z,1013.36
2017-10-27T00:47:42.583Z,1013.33
2017-10-27T00:48:42.578Z,1013.32
2017-10-27T00:49:42.587Z,1013.33
2017-10-27T00:50:42.582Z,1013.29
2017-10-27T00:51:42.583Z,1013.31
2017-10-27T00:52:42.584Z,1013.27
2017-10-27T00:53:42.584Z,1013.27
2017-10-27T00:54:42.593Z,1013.27
2017-10-27T00:55:42.588Z,1013.30
2017-10-27T00:56:42.594Z,1013.27
2017-10-27T00:57:42.596Z,1013.33
2017-10-27T00:58:42.593Z,1013.26
2017-10-27T00:59:42.601Z,1013.25
2017-10-27T01:00:42.596Z,1013.24
2017-10-27T01:01:42.600Z,1013.25
2017-10-27T01:02:42.600Z,1013.22
2017-10-27T01:03:42.605Z,1013.21
2017-10-27T01:04:42.610Z,1013.21
2017-10-27T01:05:42.607Z,1013.21
2017-10-27T01:06:42.602Z,1013.19
2017-10-27T01:07:42.613Z,1013.19
2017-10-27T01:08:42.604Z,1013.19
2017-10-27T01:09:42.608Z,1013.17
2017-10-27T01:10:42.611Z,1013.22
2017-10-27T01:11:42.613Z,1013.20
2017-10-27T01:12:42.611Z,1013.24
2017-10-27T01:13:42.610Z,1013.27
2017-10-27T01:14:42.612Z,1013.23
2017-10-27T01:15:42.614Z,1013.25
2017-10-27T01:16:42.616Z,1013.20
2017-10-27T01:17:42.620Z,1013.20
2017-10-27T01:18:42.623Z,1013.22
2017-10-27T01:19:42.623Z,1013.23
2017-10-27T01:20:42.623Z,1013.18
2017-10-27T01:21:42.622Z,1013.22
2017-10-27T01:22:42.630Z,1013.22
2017-10-27T01:23:42.623Z,1013.14
2017-10-27T01:24:42.632Z,1013.19
2017-10-27T01:25:42.629Z,1013.17
2017-10-27T01:26:42.632Z,1013.17
2017-10-27T01:27:42.631Z,1013.19
2017-10-27T01:28:42.631Z,1013.12
2017-10-27T01:29:42.632Z,1013.09
2017-10-27T01:30:42.632Z,1013.15
2017-10-27T01:31:42.643Z,1013.09
2017-10-27T01:32:42.641Z,1013.15
2017-10-27T01:33:42.636Z,1013.13
2017-10-27T01:34:42.651Z,1013.10
2017-10-27T01:35:42.639Z,1013.16
2017-10-27T01:36:42.639Z,1013.06
2017-10-27T01:37:42.639Z,1013.07
2017-10-27T01:38:42.641Z,1013.05
2017-10-27T01:39:42.644Z,1013.00
2017-10-27T01:40:42.651Z,1012.98
2017-10-27T01:41:42.657Z,1013.01
2017-10-27T01:42:42.650Z,1012.99
2017-10-27T01:43:42.650Z,1013.02
2017-10-27T01:44:42.651Z,1013.00
2017-10-27T01:45:42.653Z,1012.98
2017-10-27T01:46:42.653Z,1012.96
2017-10-27T01:47:42.653Z,1012.94
2017-10-27T01:48:42.662Z,1012.92
2017-10-27T01:49:42.650Z,1012.92
2017-10-27T01:50:42.658Z,1012.87
2017-10-27T01:51:42.658Z,1012.83
2017-10-27T01:52:42.656Z,1012.79
2017-10-27T01:53:42.659Z,1012.79
2017-10-27T01:54:42.662Z,1012.76
2017-10-27T01:55:42.663Z,1012.71
2017-10-27T01:56:42.672Z,1012.71
2017-10-27T01:57:42.662Z,1012.67
2017-10-27T01:58:42.666Z,1012.69
2017-10-27T01:59:42.685Z,1012.67
2017-10-27T02:00:42.672Z,1012.68
2017-10-27T02:01:42.670Z,1012.67
2017-10-27T02:02:42.674Z,1012.66
2017-10-27T02:03:42.670Z,1012.63
2017-10-27T02:04:42.672Z,1012.63
2017-10-27T02:05:42.681Z,1012.58
2017-10-27T02:06:42.672Z,1012.62
2017-10-27T02:07:42.679Z,1012.56
2017-10-27T02:08:42.673Z,1012.61
2017-10-27T02:09:42.678Z,1012.61
2017-10-27T02:10:42.680Z,1012.62
2017-10-27T02:11:42.682Z,1012.61
2017-10-27T02:12:42.678Z,1012.63
2017-10-27T02:13:42.681Z,1012.63
2017-10-27T02:14:42.683Z,1012.63
2017-10-27T02:15:42.683Z,1012.58
2017-10-27T02:16:42.682Z,1012.61
2017-10-27T02:17:42.686Z,1012.55
2017-10-27T02:18:42.683Z,1012.56
2017-10-27T02:19:42.686Z,1012.53
2017-10-27T02:20:42.685Z,1012.53
2017-10-27T02:21:42.692Z,1012.49
2017-10-27T02:22:42.689Z,1012.51
2017-10-27T02:23:42.691Z,1012.49
2017-10-27T02:24:42.692Z,1012.44
2017-10-27T02:25:42.701Z,1012.44
2017-10-27T02:26:42.693Z,1012.44
2017-10-27T02:27:42.708Z,1012.42
2017-10-27T02:28:42.693Z,1012.45
2017-10-27T02:29:42.691Z,1012.43
2017-10-27T02:30:42.706Z,1012.48
2017-10-27T02:31:42.704Z,1012.50
2017-10-27T02:32:42.701Z,1012.52
2017-10-27T02:33:42.697Z,1012.54
2017-10-27T02:34:42.703Z,1012.53
2017-10-27T02:35:42.713Z,1012.56
2017-10-27T02:36:42.701Z,1012.53
2017-10-27T02:37:42.703Z,1012.57
2017-10-27T02:38:42.704Z,1012.50
2017-10-27T02:39:42.708Z,1012.52
2017-10-27T02:40:42.703Z,1012.54
2017-10-27T02:41:42.701Z,1012.56
2017-10-27T02:42:42.705Z,1012.57
2017-10-27T02:43:42.710Z,1012.57
2017-10-27T02:44:42.710Z,1012.62
2017-10-27T02:45:42.713Z,1012.60
2017-10-27T02:46:42.710Z,1012.53
2017-10-27T02:47:42.712Z,1012.55
2017-10-27T02:48:42.710Z,1012.51
2017-10-27T02:49:42.711Z,1012.53
2017-10-27T02:50:42.713Z,1012.52
2017-10-27T02:51:42.715Z,1012.53
2017-10-27T02:52:42.720Z,1012.53
2017-10-27T02:53:42.716Z,1012.61
2017-10-27T02:54:42.715Z,1012.58
2017-10-27T02:55:42.716Z,1012.54
2017-10-27T02:56:42.728Z,1012.55
2017-10-27T02:57:42.721Z,1012.52
2017-10-27T02:58:42.716Z,1012.51
2017-10-27T02:59:42.722Z,1012.48
2017-10-27T03:00:42.723Z,1012.51
2017-10-27T03:01:42.721Z,1012.48
2017-10-27T03:02:42.720Z,1012.50
2017-10-27T03:03:42.725Z,1012.47
2017-10-27T03:04:42.727Z,1012.48
2017-10-27T03:05:42.725Z,1012.44
2017-10-27T03:06:42.732Z,1012.49
2017-10-27T03:07:42.731Z,1012.43
2017-10-27T03:08:42.727Z,1012.47
2017-10-27T03:09:42.729Z,1012.45
2017-10-27T03:10:42.730Z,1012.47
2017-10-27T03:11:42.731Z,1012.52
2017-10-27T03:12:42.731Z,1012.45
2017-10-27T03:13:42.732Z,1012.45
2017-10-27T03:14:42.741Z,1012.47
2017-10-27T03:15:42.735Z,1012.45
2017-10-27T03:16:42.735Z,1012.41
2017-10-27T03:17:42.734Z,1012.39
2017-10-27T03:18:42.738Z,1012.36
2017-10-27T03:19:42.738Z,1012.32
2017-10-27T03:20:42.738Z,1012.33
2017-10-27T03:21:42.743Z,1012.33
2017-10-27T03:22:42.739Z,1012.34
2017-10-27T03:23:42.742Z,1012.37
2017-10-27T03:24:42.741Z,1012.35
2017-10-27T03:25:42.741Z,1012.37
2017-10-27T03:26:42.749Z,1012.38
2017-10-27T03:27:42.749Z,1012.44
2017-10-27T03:28:42.752Z,1012.42
2017-10-27T03:29:42.753Z,1012.41
2017-10-27T03:30:42.750Z,1012.50
2017-10-27T03:31:42.749Z,1012.48
2017-10-27T03:32:42.755Z,1012.49
2017-10-27T03:33:42.751Z,1012.43
2017-10-27T03:34:42.748Z,1012.49
2017-10-27T03:35:42.752Z,1012.42
2017-10-27T03:36:42.749Z,1012.39
2017-10-27T03:37:42.750Z,1012.40
2017-10-27T03:38:42.759Z,1012.39
2017-10-27T03:39:42.759Z,1012.42
2017-10-27T03:40:42.757Z,1012.43
2017-10-27T03:41:42.760Z,1012.46
2017-10-27T03:42:42.758Z,1012.44
2017-10-27T03:43:42.758Z,1012.46
2017-10-27T03:44:42.762Z,1012.53
2017-10-27T03:45:42.759Z,1012.48
2017-10-27T03:46:42.762Z,1012.51
2017-10-27T03:47:42.770Z,1012.50
2017-10-27T03:48:42.769Z,1012.51
2017-10-27T03:49:42.768Z,1012.56
2017-10-27T03:50:42.769Z,1012.61
2017-10-27T03:51:42.770Z,1012.65
2017-10-27T03:52:42.769Z,1012.62
2017-10-27T03:53:42.768Z,1012.67
2017-10-27T03:54:42.768Z,1012.64
2017-10-27T03:55:42.768Z,1012.70
2017-10-27T03:56:42.771Z,1012.63
2017-10-27T03:57:42.775Z,1012.69
2017-10-27T03:58:42.794Z,1012.65
2017-10-27T03:59:42.771Z,1012.66
2017-10-27T04:00:42.779Z,1012.64
2017-10-27T04:01:42.779Z,1012.63
2017-10-27T04:02:42.772Z,1012.61
2017-10-27T04:03:42.778Z,1012.63
2017-10-27T04:04:42.780Z,1012.67
2017-10-27T04:05:42.782Z,1012.59
2017-10-27T04:06:42.782Z,1012.66
2017-10-27T04:07:42.781Z,1012.68
2017-10-27T04:08:42.787Z,1012.68
2017-10-27T04:09:42.781Z,1012.61
2017-10-27T04:10:42.780Z,1012.63
2017-10-27T04:11:42.781Z,1012.62
2017-10-27T04:12:42.781Z,1012.59
2017-10-27T04:13:42.783Z,1012.60
2017-10-27T04:14:42.783Z,1012.58
2017-10-27T04:15:42.791Z,1012.59
2017-10-27T04:16:42.791Z,1012.59
2017-10-27T04:17:42.792Z,1012.63
2017-10-27T04:18:42.790Z,1012.67
2017-10-27T04:19:42.792Z,1012.65
2017-10-27T04:20:42.797Z,1012.69
2017-10-27T04:21:42.799Z,1012.65
2017-10-27T04:22:42.791Z,1012.70
2017-10-27T04:23:42.792Z,1012.67
2017-10-27T04:24:42.799Z,1012.71
2017-10-27T04:25:42.800Z,1012.72
2017-10-27T04:26:42.796Z,1012.62
2017-10-27T04:27:42.801Z,1012.67
2017-10-27T04:28:42.809Z,1012.66
2017-10-27T04:29:42.802Z,1012.69
2017-10-27T04:30:42.802Z,1012.64
2017-10-27T04:31:42.800Z,1012.64
2017-10-27T04:32:42.800Z,1012.62
2017-10-27T04:33:42.805Z,1012.59
2017-10-27T04:34:42.801Z,1012.58
2017-10-27T04:35:42.805Z,1012.56
2017-10-27T04:36:42.810Z,1012.58
2017-10-27T04:37:42.809Z,1012.62
2017-10-27T04:38:42.811Z,1012.62
2017-10-27T04:39:42.813Z,1012.66
2017-10-27T04:40:42.811Z,1012.65
2017-10-27T04:41:42.812Z,1012.69
2017-10-27T04:42:42.813Z,1012.67
2017-10-27T04:43:42.821Z,1012.68
2017-10-27T04:44:42.818Z,1012.70
2017-10-27T04:45:42.813Z,1012.73
2017-10-27T04:46:42.815Z,1012.77
2017-10-27T04:47:42.827Z,1012.75
2017-10-27T04:48:42.821Z,1012.82
2017-10-27T04:49:42.814Z,1012.77
2017-10-27T04:50:42.820Z,1012.79
2017-10-27T04:51:42.820Z,1012.79
2017-10-27T04:52:42.820Z,1012.80
2017-10-27T04:53:42.822Z,1012.75
2017-10-27T04:54:42.822Z,1012.79
2017-10-27T04:55:42.822Z,1012.77
2017-10-27T04:56:42.823Z,1012.76
2017-10-27T04:57:42.824Z,1012.76
2017-10-27T04:58:42.827Z,1012.75
2017-10-27T04:59:42.831Z,1012.78
2017-10-27T05:00:42.827Z,1012.74
2017-10-27T05:01:42.840Z,1012.77
2017-10-27T05:02:42.832Z,1012.76
2017-10-27T05:03:42.832Z,1012.74
2017-10-27T05:04:42.830Z,1012.80
2017-10-27T05:05:42.832Z,1012.80
2017-10-27T05:06:42.835Z,1012.81
2017-10-27T05:07:42.842Z,1012.85
2017-10-27T05:08:42.835Z,1012.76
2017-10-27T05:09:42.833Z,1012.74
2017-10-27T05:10:42.836Z,1012.72
2017-10-27T05:11:42.836Z,1012.67
2017-10-27T05:12:42.837Z,1012.68
2017-10-27T05:13:42.841Z,1012.67
2017-10-27T05:14:42.847Z,1012.63
2017-10-27T05:15:42.839Z,1012.60
2017-10-27T05:16:42.845Z,1012.67
2017-10-27T05:17:42.843Z,1012.64
2017-10-27T05:18:42.842Z,1012.64
2017-10-27T05:19:42.845Z,1012.66
2017-10-27T05:20:42.846Z,1012.66
2017-10-27T05:21:42.848Z,1012.64
2017-10-27T05:22:42.845Z,1012.67
2017-10-27T05:23:42.847Z,1012.66
2017-10-27T05:24:42.853Z,1012.68
2017-10-27T05:25:42.847Z,1012.66
2017-10-27T05:26:42.847Z,1012.65
2017-10-27T05:27:42.848Z,1012.65
2017-10-27T05:28:42.849Z,1012.61
2017-10-27T05:29:42.856Z,1012.65
2017-10-27T05:30:42.851Z,1012.65
2017-10-27T05:31:42.852Z,1012.57
2017-10-27T05:32:42.854Z,1012.62
2017-10-27T05:33:42.852Z,1012.63
2017-10-27T05:34:42.863Z,1012.63
2017-10-27T05:35:42.855Z,1012.65
2017-10-27T05:36:42.855Z,1012.58
2017-10-27T05:37:42.857Z,1012.67
2017-10-27T05:38:42.859Z,1012.72
2017-10-27T05:39:42.859Z,1012.66
2017-10-27T05:40:42.859Z,1012.64
2017-10-27T05:41:42.858Z,1012.69
2017-10-27T05:42:42.860Z,1012.72
2017-10-27T05:43:42.862Z,1012.75
2017-10-27T05:44:42.859Z,1012.75
2017-10-27T05:45:42.859Z,1012.74
2017-10-27T05:46:42.862Z,1012.72
2017-10-27T05:47:42.863Z,1012.73
2017-10-27T05:48:42.879Z,1012.74
2017-10-27T05:49:42.868Z,1012.77
2017-10-27T05:50:42.864Z,1012.81
2017-10-27T05:51:42.867Z,1012.76
2017-10-27T05:52:42.870Z,1012.75
2017-10-27T05:53:42.872Z,1012.75
2017-10-27T05:54:42.871Z,1012.78
2017-10-27T05:55:42.876Z,1012.70
2017-10-27T05:56:42.870Z,1012.76
2017-10-27T05:57:42.865Z,1012.73
2017-10-27T05:58:42.866Z,1012.74
2017-10-27T05:59:42.874Z,1012.75
2017-10-27T06:00:42.869Z,1012.76
2017-10-27T06:01:42.870Z,1012.78
2017-10-27T06:02:42.872Z,1012.85
2017-10-27T06:03:42.873Z,1012.87
2017-10-27T06:04:42.883Z,1012.85
2017-10-27T06:05:42.871Z,1012.87
2017-10-27T06:06:42.870Z,1012.86
2017-10-27T06:07:42.872Z,1012.86
2017-10-27T06:08:42.874Z,1012.90
2017-10-27T06:09:42.873Z,1012.89
2017-10-27T06:10:42.870Z,1012.87
2017-10-27T06:11:42.874Z,1012.93
2017-10-27T06:12:42.875Z,1012.90
2017-10-27T06:13:42.874Z,1012.92
2017-10-27T06:14:42.880Z,1012.93
2017-10-27T06:15:42.876Z,1012.96
2017-10-27T06:16:42.878Z,1012.97
2017-10-27T06:17:42.878Z,1012.98
2017-10-27T06:18:42.872Z,1012.99
2017-10-27T06:19:42.882Z,1012.96
2017-10-27T06:20:42.876Z,1012.92
2017-10-27T06:21:42.877Z,1012.95
2017-10-27T06:22:42.883Z,1012.99
2017-10-27T06:23:42.882Z,1013.00
2017-10-27T06:24:42.886Z,1013.01
2017-10-27T06:25:42.878Z,1012.98
2017-10-27T06:26:42.880Z,1012.99
2017-10-27T06:27:42.879Z,1013.05
2017-10-27T06:28:42.879Z,1013.07
2017-10-27T06:29:42.873Z,1013.14
2017-10-27T06:30:42.881Z,1013.12
2017-10-27T06:31:42.880Z,1013.00
2017-10-27T06:32:42.881Z,1013.18
2017-10-27T06:33:42.879Z,1013.05
2017-10-27T06:34:42.881Z,1013.09
2017-10-27T06:35:42.889Z,1013.10
2017-10-27T06:36:42.881Z,1013.06
2017-10-27T06:37:42.881Z,1013.11
2017-10-27T06:38:42.883Z,1013.12
2017-10-27T06:39:42.879Z,1013.14
2017-10-27T06:40:42.882Z,1013.15
2017-10-27T06:41:42.881Z,1013.13
2017-10-27T06:42:42.878Z,1013.17
2017-10-27T06:43:42.886Z,1013.15
2017-10-27T06:44:42.882Z,1013.14
2017-10-27T06:45:42.919Z,1013.21
2017-10-27T06:46:42.881Z,1013.20
2017-10-27T06:47:42.878Z,1013.23
2017-10-27T06:48:42.886Z,1013.23
2017-10-27T06:49:42.879Z,1013.27
2017-10-27T06:50:42.880Z,1013.33
2017-10-27T06:51:42.883Z,1013.28
2017-10-27T06:52:42.883Z,1013.30
2017-10-27T06:53:42.883Z,1013.34
2017-10-27T06:54:42.885Z,1013.29
2017-10-27T06:55:42.891Z,1013.31
2017-10-27T06:56:42.882Z,1013.32
2017-10-27T06:57:42.881Z,1013.42
2017-10-27T06:58:42.883Z,1013.32
2017-10-27T06:59:42.898Z,1013.35
2017-10-27T07:00:42.889Z,1013.29
2017-10-27T07:01:42.885Z,1013.32
2017-10-27T07:02:42.891Z,1013.43
2017-10-27T07:03:42.886Z,1013.37
2017-10-27T07:04:42.894Z,1013.40
2017-10-27T07:05:42.889Z,1013.48
2017-10-27T07:08:14.998Z,1013.42
2017-10-27T07:09:14.965Z,1013.46
2017-10-27T07:10:14.963Z,1013.44
2017-10-27T07:11:14.963Z,1013.46
2017-10-27T07:12:14.969Z,1013.47
2017-10-27T07:13:14.962Z,1013.51
2017-10-27T07:14:14.962Z,1013.54
2017-10-27T07:15:14.963Z,1013.52
2017-10-27T07:16:14.968Z,1013.55
2017-10-27T07:17:14.965Z,1013.55
2017-10-27T07:18:14.963Z,1013.63
2017-10-27T07:19:14.969Z,1013.66
2017-10-27T07:20:14.973Z,1013.68
2017-10-27T07:21:14.964Z,1013.71
2017-10-27T07:22:14.968Z,1013.73
2017-10-27T07:23:14.964Z,1013.68
2017-10-27T07:24:14.967Z,1013.72
2017-10-27T07:25:14.971Z,1013.69
2017-10-27T07:26:14.967Z,1013.67
2017-10-27T07:27:14.968Z,1013.68
2017-10-27T07:28:14.973Z,1013.71
2017-10-27T07:29:14.977Z,1013.67
2017-10-27T07:30:14.982Z,1013.70
2017-10-27T07:31:14.970Z,1013.72
2017-10-27T07:32:14.965Z,1013.70
2017-10-27T07:33:14.974Z,1013.76
2017-10-27T07:34:14.969Z,1013.73
2017-10-27T07:35:14.971Z,1013.76
2017-10-27T07:36:14.970Z,1013.71
2017-10-27T07:37:14.969Z,1013.64
2017-10-27T07:38:14.975Z,1013.71
2017-10-27T07:39:14.973Z,1013.77
2017-10-27T07:40:14.984Z,1013.80
2017-10-27T07:41:14.974Z,1013.80
2017-10-27T07:42:14.977Z,1013.87
2017-10-27T07:43:17.272Z,1013.91
2017-10-27T07:44:14.970Z,1013.85
2017-10-27T07:45:14.973Z,1013.81
2017-10-27T07:46:14.978Z,1013.86
2017-10-27T07:47:14.975Z,1013.91
2017-10-27T07:48:14.972Z,1013.84
2017-10-27T07:49:14.975Z,1013.96
2017-10-27T07:50:14.971Z,1013.94
2017-10-27T07:51:14.975Z,1013.90
2017-10-27T07:52:14.973Z,1013.94
2017-10-27T07:53:14.973Z,1013.93
2017-10-27T07:54:14.978Z,1013.95
2017-10-27T07:55:14.976Z,1013.97
2017-10-27T07:56:15.004Z,1013.94
2017-10-27T07:57:14.981Z,1013.99
2017-10-27T07:58:14.981Z,1013.99
2017-10-27T07:59:14.991Z,1013.99
2017-10-27T08:00:14.980Z,1014.03
2017-10-27T08:01:14.983Z,1014.01
2017-10-27T08:02:14.978Z,1013.97
2017-10-27T08:03:14.977Z,1014.01
2017-10-27T08:04:14.978Z,1013.98
2017-10-27T08:05:14.985Z,1014.00
2017-10-27T08:06:14.983Z,1014.03
2017-10-27T08:07:14.979Z,1014.10
2017-10-27T08:08:14.979Z,1014.03
2017-10-27T08:09:14.980Z,1013.99
2017-10-27T08:10:14.985Z,1014.04
2017-10-27T08:11:14.984Z,1014.06
2017-10-27T08:12:14.998Z,1014.08
2017-10-27T08:13:14.984Z,1014.04
2017-10-27T08:14:14.989Z,1014.07
2017-10-27T08:15:14.984Z,1014.13
2017-10-27T08:16:14.987Z,1014.17
2017-10-27T08:17:14.987Z,1014.13
2017-10-27T08:18:14.987Z,1014.17
2017-10-27T08:19:14.994Z,1014.09
2017-10-27T08:20:14.988Z,1014.21
2017-10-27T08:21:15.007Z,1014.18
2017-10-27T08:22:14.996Z,1014.13
2017-10-27T08:23:14.991Z,1014.22
2017-10-27T08:24:14.991Z,1014.27
2017-10-27T08:25:14.991Z,1014.30
2017-10-27T08:26:14.996Z,1014.36
2017-10-27T08:27:14.992Z,1014.34
2017-10-27T08:28:14.993Z,1014.37
2017-10-27T08:29:14.999Z,1014.38
2017-10-27T08:30:14.998Z,1014.48
2017-10-27T08:31:15.004Z,1014.45
2017-10-27T08:32:15.004Z,1014.45
2017-10-27T08:33:14.997Z,1014.39
2017-10-27T08:34:15.006Z,1014.48
2017-10-27T08:35:14.998Z,1014.51
2017-10-27T08:36:15.002Z,1014.54
2017-10-27T08:37:15.001Z,1014.57
2017-10-27T08:38:15.011Z,1014.51
2017-10-27T08:39:15.001Z,1014.65
2017-10-27T08:40:15.015Z,1014.68
2017-10-27T08:41:15.009Z,1014.63
2017-10-27T08:42:15.007Z,1014.65
2017-10-27T08:43:15.012Z,1014.74
2017-10-27T08:44:15.012Z,1014.72
2017-10-27T08:45:15.012Z,1014.79
2017-10-27T08:46:15.021Z,1014.78
2017-10-27T08:47:15.014Z,1014.83
2017-10-27T08:48:15.014Z,1014.81
2017-10-27T08:49:15.013Z,1014.84
2017-10-27T08:50:15.013Z,1014.92
2017-10-27T08:51:15.013Z,1014.92
2017-10-27T08:52:15.018Z,1014.97
2017-10-27T08:53:15.236Z,1015.00
2017-10-27T08:54:15.030Z,1014.97
2017-10-27T08:55:15.023Z,1014.97
2017-10-27T08:56:15.021Z,1015.01
2017-10-27T08:57:15.024Z,1014.99
2017-10-27T08:58:15.022Z,1014.99
2017-10-27T08:59:15.027Z,1015.02
2017-10-27T09:00:15.023Z,1015.04
2017-10-27T09:01:15.024Z,1014.93
2017-10-27T09:02:15.027Z,1015.02
2017-10-27T09:03:15.030Z,1015.07
2017-10-27T09:04:15.034Z,1015.11
2017-10-27T09:05:15.028Z,1015.10
2017-10-27T09:06:15.034Z,1015.17
2017-10-27T09:07:15.035Z,1015.14
2017-10-27T09:08:15.037Z,1015.12
2017-10-27T09:09:15.034Z,1015.22
2017-10-27T09:10:15.034Z,1015.20
2017-10-27T09:11:15.044Z,1015.25
2017-10-27T09:12:15.044Z,1015.23
2017-10-27T09:13:15.040Z,1015.26
2017-10-27T09:14:15.055Z,1015.22
2017-10-27T09:15:15.042Z,1015.33
2017-10-27T09:16:15.046Z,1015.31
2017-10-27T09:17:15.044Z,1015.30
2017-10-27T09:18:15.044Z,1015.35
2017-10-27T09:19:15.053Z,1015.32
2017-10-27T09:20:15.049Z,1015.39
2017-10-27T09:21:15.052Z,1015.36
2017-10-27T09:22:15.052Z,1015.37
2017-10-27T09:23:15.054Z,1015.37
2017-10-27T09:24:15.054Z,1015.39
2017-10-27T09:25:15.052Z,1015.43
2017-10-27T09:26:15.055Z,1015.44
2017-10-27T09:27:15.064Z,1015.45
2017-10-27T09:28:15.060Z,1015.47
2017-10-27T09:29:15.056Z,1015.48
2017-10-27T09:30:15.064Z,1015.44
2017-10-27T09:31:15.065Z,1015.47
2017-10-27T09:32:15.074Z,1015.40
2017-10-27T09:33:15.062Z,1015.42
2017-10-27T09:34:15.070Z,1015.40
2017-10-27T09:35:15.066Z,1015.39
2017-10-27T09:36:15.071Z,1015.46
2017-10-27T09:37:15.069Z,1015.45
2017-10-27T09:38:15.114Z,1015.37
2017-10-27T09:39:15.070Z,1015.40
2017-10-27T09:40:15.073Z,1015.43
2017-10-27T09:41:15.071Z,1015.46
2017-10-27T09:42:15.073Z,1015.50
2017-10-27T09:43:15.075Z,1015.47
2017-10-27T09:44:15.077Z,1015.49
2017-10-27T09:45:15.089Z,1015.55
2017-10-27T09:46:15.081Z,1015.65
2017-10-27T09:47:15.083Z,1015.68
2017-10-27T09:48:15.085Z,1015.77
2017-10-27T09:49:15.079Z,1015.81
2017-10-27T09:50:15.084Z,1015.83
2017-10-27T09:51:15.089Z,1015.87
2017-10-27T09:52:15.085Z,1015.87
2017-10-27T09:53:15.107Z,1015.89
2017-10-27T09:54:15.094Z,1015.91
2017-10-27T09:55:15.093Z,1015.92
2017-10-27T09:56:15.094Z,1015.93
2017-10-27T09:57:15.094Z,1015.98
2017-10-27T09:58:15.093Z,1016.00
2017-10-27T09:59:15.103Z,1016.03
2017-10-27T10:00:15.112Z,1015.99
2017-10-27T10:01:15.104Z,1016.01
2017-10-27T10:02:15.103Z,1016.04
2017-10-27T10:03:15.117Z,1016.10
2017-10-27T10:04:15.107Z,1016.14
2017-10-27T10:05:15.107Z,1016.12
2017-10-27T10:06:15.114Z,1016.16
2017-10-27T10:07:15.118Z,1016.19
2017-10-27T10:08:15.112Z,1016.19
2017-10-27T10:09:15.114Z,1016.15
2017-10-27T10:10:15.121Z,1016.15
2017-10-27T10:11:15.122Z,1016.23
2017-10-27T10:12:15.122Z,1016.24
2017-10-27T10:13:15.128Z,1016.30
2017-10-27T10:14:15.122Z,1016.33
2017-10-27T10:15:15.123Z,1016.33
2017-10-27T10:16:15.138Z,1016.31
2017-10-27T10:17:15.129Z,1016.37
2017-10-27T10:18:15.133Z,1016.39
2017-10-27T10:19:15.132Z,1016.57
2017-10-27T10:20:15.136Z,1016.49
2017-10-27T10:21:15.133Z,1016.57
2017-10-27T10:22:15.141Z,1016.59
2017-10-27T10:23:15.143Z,1016.59
2017-10-27T10:24:15.141Z,1016.59
2017-10-27T10:25:15.141Z,1016.63
2017-10-27T10:26:15.151Z,1016.66
2017-10-27T10:27:15.149Z,1016.70
2017-10-27T10:28:15.148Z,1016.72
2017-10-27T10:29:15.158Z,1016.71
2017-10-27T10:30:15.150Z,1016.76
2017-10-27T10:31:15.155Z,1016.80
2017-10-27T10:32:15.155Z,1016.81
2017-10-27T10:33:15.154Z,1016.79
2017-10-27T10:34:15.161Z,1016.77
2017-10-27T10:35:15.159Z,1016.86
2017-10-27T10:36:15.164Z,1016.91
2017-10-27T10:37:15.165Z,1016.94
2017-10-27T10:38:15.167Z,1016.88
2017-10-27T10:39:15.169Z,1017.02
2017-10-27T10:40:15.171Z,1016.98
2017-10-27T10:41:15.172Z,1017.04
2017-10-27T10:42:15.194Z,1017.09
2017-10-27T10:43:15.175Z,1017.10
2017-10-27T10:44:15.180Z,1017.11
2017-10-27T10:45:15.173Z,1017.14
2017-10-27T10:46:15.178Z,1017.09
2017-10-27T10:47:15.179Z,1017.15
2017-10-27T10:48:15.188Z,1017.18
2017-10-27T10:49:15.183Z,1017.24
2017-10-27T10:50:15.186Z,1017.16
2017-10-27T10:51:15.202Z,1017.24
2017-10-27T10:52:15.192Z,1017.22
2017-10-27T10:53:15.188Z,1017.15
2017-10-27T10:54:15.189Z,1017.13
2017-10-27T10:55:15.199Z,1017.18
2017-10-27T10:56:15.195Z,1017.27
2017-10-27T10:57:15.194Z,1017.35
2017-10-27T10:58:15.196Z,1017.36
2017-10-27T10:59:15.200Z,1017.31
2017-10-27T11:00:15.207Z,1017.33
2017-10-27T11:01:15.212Z,1017.35
2017-10-27T11:02:15.208Z,1017.42
2017-10-27T11:03:15.206Z,1017.43
2017-10-27T11:04:15.206Z,1017.43
2017-10-27T11:05:15.209Z,1017.41
2017-10-27T11:06:15.218Z,1017.42
2017-10-27T11:07:15.214Z,1017.38
2017-10-27T11:08:15.216Z,1017.49
2017-10-27T11:09:15.218Z,1017.48
2017-10-27T11:10:15.222Z,1017.54
2017-10-27T11:11:15.224Z,1017.49
2017-10-27T11:12:15.221Z,1017.50
2017-10-27T11:13:15.221Z,1017.53
2017-10-27T11:14:15.221Z,1017.52
2017-10-27T11:15:15.225Z,1017.52
2017-10-27T11:16:15.321Z,1017.55
2017-10-27T11:17:15.231Z,1017.62
2017-10-27T11:18:15.231Z,1017.56
2017-10-27T11:19:15.230Z,1017.50
2017-10-27T11:20:15.293Z,1017.55
2017-10-27T11:21:15.237Z,1017.61
2017-10-27T11:22:15.236Z,1017.67
2017-10-27T11:23:15.235Z,1017.59
2017-10-27T11:24:15.237Z,1017.63
2017-10-27T11:25:15.254Z,1017.54
2017-10-27T11:26:15.248Z,1017.61
2017-10-27T11:27:15.246Z,1017.62
2017-10-27T11:28:15.249Z,1017.58
2017-10-27T11:29:15.247Z,1017.70
2017-10-27T11:30:15.252Z,1017.71
2017-10-27T11:31:15.251Z,1017.68
2017-10-27T11:32:15.266Z,1017.69
2017-10-27T11:33:15.278Z,1017.70
2017-10-27T11:34:15.263Z,1017.70
2017-10-27T11:35:15.259Z,1017.72
2017-10-27T11:36:15.264Z,1017.71
2017-10-27T11:37:15.263Z,1017.76
2017-10-27T11:38:15.269Z,1017.69
2017-10-27T11:39:15.264Z,1017.67
2017-10-27T11:40:15.268Z,1017.68
2017-10-27T11:41:15.274Z,1017.72
2017-10-27T11:42:15.275Z,1017.69
2017-10-27T11:43:15.272Z,1017.76
2017-10-27T11:44:15.276Z,1017.76
2017-10-27T11:45:15.276Z,1017.76
2017-10-27T11:46:15.275Z,1017.77
2017-10-27T11:47:15.283Z,1017.77
2017-10-27T11:48:15.284Z,1017.80
2017-10-27T11:49:15.284Z,1017.80
2017-10-27T11:50:15.284Z,1017.74
2017-10-27T11:51:15.287Z,1017.73
2017-10-27T11:52:15.293Z,1017.80
2017-10-27T11:53:15.286Z,1017.80
2017-10-27T11:54:15.292Z,1017.88
2017-10-27T11:55:15.292Z,1017.90
2017-10-27T11:56:15.291Z,1017.88
2017-10-27T11:57:15.299Z,1017.94
2017-10-27T11:58:15.295Z,1017.98
2017-10-27T11:59:15.302Z,1017.99
2017-10-27T12:00:15.309Z,1017.98
2017-10-27T12:01:15.305Z,1017.99
2017-10-27T12:02:15.309Z,1018.08
2017-10-27T12:03:15.307Z,1018.07
2017-10-27T12:04:15.318Z,1017.99
2017-10-27T12:05:15.311Z,1018.11
2017-10-27T12:06:15.344Z,1018.12
2017-10-27T12:07:15.316Z,1018.17